Time;durP1;ratioP1;P1;durP2;ratioP2;P2;SDS_P1;SDS_P2;PMS_P1;PMS_P2;Temp;Humidity;BMP_temperature;BMP_pressure;BME280_temperature;BME280_humidity;BME280_pressure;Samples;Min_cycle;Max_cycle;Signal;HPM_P1;HPM_P2
2022/12/16 00:00:28;;;;;;;43.63;27.93;;;0.30;99.90;;;;;;5060690;28;20780;-77
2022/12/16 00:02:54;;;;;;;46.63;25.73;;;0.30;99.90;;;;;;5072373;28;20245;-77
2022/12/16 00:05:20;;;;;;;40.33;26.40;;;0.30;99.90;;;;;;5072519;28;20223;-77
2022/12/16 00:07:46;;;;;;;42.93;26.97;;;0.30;99.90;;;;;;5073300;28;20269;-77
2022/12/16 00:10:12;;;;;;;43.67;26.27;;;0.30;99.90;;;;;;5072627;28;20184;-77
2022/12/16 00:12:38;;;;;;;44.53;24.90;;;0.30;99.90;;;;;;5065782;28;20276;-77
2022/12/16 00:15:04;;;;;;;44.63;27.30;;;0.30;99.90;;;;;;5052086;28;20265;-77
2022/12/16 00:17:30;;;;;;;43.57;27.07;;;0.30;99.90;;;;;;5053038;28;20265;-77
2022/12/16 00:19:56;;;;;;;39.57;25.33;;;0.30;99.90;;;;;;5054055;28;20178;-76
2022/12/16 00:22:22;;;;;;;43.80;26.57;;;0.30;99.90;;;;;;5056035;28;20212;-77
2022/12/16 00:24:48;;;;;;;44.80;26.57;;;0.30;99.90;;;;;;5052069;28;20219;-77
2022/12/16 00:27:14;;;;;;;46.33;26.60;;;0.30;99.90;;;;;;5051890;28;20568;-77
2022/12/16 00:29:40;;;;;;;41.00;25.90;;;0.20;99.90;;;;;;5053620;28;20213;-76
2022/12/16 00:32:05;;;;;;;43.73;25.77;;;0.20;99.90;;;;;;5068433;28;20182;-76
2022/12/16 00:34:32;;;;;;;41.33;24.23;;;0.20;99.90;;;;;;5064809;28;20182;-76
2022/12/16 00:36:58;;;;;;;48.03;27.03;;;0.10;99.90;;;;;;5052832;28;20204;-76
2022/12/16 00:39:24;;;;;;;42.97;25.40;;;0.10;99.90;;;;;;5052088;28;20182;-77
2022/12/16 00:41:50;;;;;;;38.13;24.47;;;0.10;99.90;;;;;;5052900;28;20534;-76
2022/12/16 00:44:16;;;;;;;45.03;26.43;;;0.10;99.90;;;;;;5052918;28;20206;-76
2022/12/16 00:46:42;;;;;;;47.57;26.63;;;0.10;99.90;;;;;;5052733;28;20235;-77
2022/12/16 00:49:08;;;;;;;41.80;26.20;;;0.10;99.90;;;;;;5051619;28;20261;-76
2022/12/16 00:51:34;;;;;;;40.03;24.33;;;0.00;99.90;;;;;;5051955;28;20216;-77
2022/12/16 00:53:59;;;;;;;45.67;25.63;;;0.00;99.90;;;;;;5052870;28;20193;-76
2022/12/16 00:56:25;;;;;;;42.30;25.80;;;0.00;99.90;;;;;;5041063;28;20194;-76
2022/12/16 00:58:51;;;;;;;41.00;26.53;;;0.00;99.90;;;;;;5059033;23;20709;-76
2022/12/16 01:01:17;;;;;;;38.83;25.57;;;0.00;99.90;;;;;;5031579;28;20196;-76
2022/12/16 01:03:43;;;;;;;43.33;24.87;;;0.00;99.90;;;;;;5032598;28;20224;-76
2022/12/16 01:06:11;;;;;;;39.73;24.97;;;0.00;99.90;;;;;;5032669;28;20647;-76
2022/12/16 01:08:37;;;;;;;40.73;24.13;;;0.00;99.90;;;;;;5032073;28;20204;-77
2022/12/16 01:11:03;;;;;;;46.03;25.37;;;0.00;99.90;;;;;;5031606;28;20182;-76
2022/12/16 01:13:29;;;;;;;40.33;25.77;;;0.00;99.90;;;;;;5031307;28;20553;-76
2022/12/16 01:15:59;;;;;;;39.83;24.23;;;0.00;99.90;;;;;;5031162;28;20183;-76
2022/12/16 01:18:24;;;;;;;42.20;24.90;;;0.00;99.90;;;;;;5030976;28;20202;-75
2022/12/16 01:20:50;;;;;;;39.03;23.77;;;0.00;99.90;;;;;;5032293;28;20601;-75
2022/12/16 01:23:16;;;;;;;37.00;25.30;;;-0.10;99.90;;;;;;5032064;28;20207;-75
2022/12/16 01:25:42;;;;;;;37.93;23.37;;;-0.10;99.90;;;;;;5032402;28;20179;-77
2022/12/16 01:28:08;;;;;;;38.60;23.43;;;-0.10;99.90;;;;;;5031176;28;20207;-76
2022/12/16 01:30:34;;;;;;;36.33;21.90;;;-0.10;99.90;;;;;;5032512;28;20223;-76
2022/12/16 01:32:59;;;;;;;44.97;24.33;;;-0.10;99.90;;;;;;5032112;28;20227;-76
2022/12/16 01:35:25;;;;;;;42.20;22.70;;;0.00;99.90;;;;;;5032105;28;20308;-75
2022/12/16 01:37:51;;;;;;;35.60;22.73;;;-0.10;99.90;;;;;;5030333;28;20203;-75
2022/12/16 01:40:21;;;;;;;36.40;21.97;;;-0.10;99.90;;;;;;5031805;28;20232;-75
2022/12/16 01:42:47;;;;;;;36.43;21.83;;;0.00;99.90;;;;;;5031248;28;20184;-75
2022/12/16 01:45:32;;;;;;;34.87;22.47;;;0.00;99.90;;;;;;5035689;28;20194;-75
2022/12/16 01:48:13;;;;;;;34.03;22.67;;;0.00;99.90;;;;;;5029382;28;20198;-76
2022/12/16 01:50:40;;;;;;;41.23;24.33;;;0.00;99.90;;;;;;5031914;28;21458;-77
2022/12/16 01:53:06;;;;;;;39.73;23.87;;;0.00;99.90;;;;;;5031390;28;20208;-77
2022/12/16 01:55:42;;;;;;;41.37;23.80;;;0.00;99.90;;;;;;5029926;28;20265;-76
2022/12/16 01:58:12;;;;;;;38.93;23.40;;;-0.10;99.90;;;;;;5030963;28;20237;-76
2022/12/16 02:00:39;;;;;;;37.27;23.23;;;-0.10;99.90;;;;;;5031348;28;20185;-77
2022/12/16 02:03:06;;;;;;;45.80;24.90;;;-0.10;99.90;;;;;;5031213;28;20284;-75
2022/12/16 02:05:34;;;;;;;41.47;24.93;;;-0.10;99.90;;;;;;5029821;28;20217;-76
2022/12/16 02:08:17;;;;;;;43.07;26.37;;;-0.10;99.90;;;;;;5030573;28;20199;-75
2022/12/16 02:10:43;;;;;;;41.93;26.17;;;-0.10;99.90;;;;;;5030075;28;20195;-76
2022/12/16 02:13:36;;;;;;;38.80;25.20;;;-0.10;99.90;;;;;;5030068;28;20173;-76
2022/12/16 02:16:11;;;;;;;43.27;25.40;;;-0.10;99.90;;;;;;5029919;28;20190;-75
2022/12/16 02:18:40;;;;;;;37.80;24.00;;;-0.10;99.90;;;;;;5029206;28;20202;-76
2022/12/16 02:21:42;;;;;;;44.63;26.13;;;-0.10;99.90;;;;;;5030091;28;20189;-78
2022/12/16 02:24:48;;;;;;;41.30;26.13;;;-0.10;99.90;;;;;;5029956;28;20222;-76
2022/12/16 02:28:01;;;;;;;44.83;25.07;;;-0.10;99.90;;;;;;4994559;28;20223;-76
2022/12/16 02:30:29;;;;;;;37.87;24.43;;;-0.10;99.90;;;;;;5002543;28;20205;-76
2022/12/16 02:33:29;;;;;;;40.10;25.60;;;-0.10;99.90;;;;;;5030927;28;20561;-77
2022/12/16 02:36:07;;;;;;;37.07;23.33;;;-0.10;99.90;;;;;;5026354;28;20606;-75
2022/12/16 02:38:53;;;;;;;37.93;24.13;;;-0.20;99.90;;;;;;5010978;28;20199;-76
2022/12/16 02:41:41;;;;;;;38.83;23.90;;;-0.20;99.90;;;;;;5010360;28;20215;-76
2022/12/16 02:44:09;;;;;;;39.60;23.70;;;-0.20;99.90;;;;;;5010713;28;20218;-76
2022/12/16 02:46:42;;;;;;;41.27;25.00;;;-0.30;99.90;;;;;;5011189;28;20173;-76
2022/12/16 02:49:28;;;;;;;46.23;26.27;;;-0.20;99.90;;;;;;5041554;28;20255;-76
2022/12/16 02:51:56;;;;;;;38.53;25.80;;;-0.30;99.90;;;;;;5030284;28;20642;-75
2022/12/16 02:54:22;;;;;;;41.27;25.80;;;-0.30;99.90;;;;;;5030520;28;20183;-76
2022/12/16 02:57:05;;;;;;;42.37;25.40;;;-0.20;99.90;;;;;;5029420;28;20183;-76
2022/12/16 02:59:49;;;;;;;39.27;25.97;;;-0.30;99.90;;;;;;5030475;28;20270;-76
2022/12/16 03:02:24;;;;;;;43.53;26.63;;;-0.20;99.90;;;;;;5034731;28;20179;-76
2022/12/16 03:05:11;;;;;;;44.70;27.93;;;-0.20;99.90;;;;;;5034237;28;20610;-76
2022/12/16 03:07:40;;;;;;;40.17;26.17;;;-0.20;99.90;;;;;;5033976;28;20223;-76
2022/12/16 03:10:10;;;;;;;47.17;27.57;;;-0.20;99.90;;;;;;5033383;28;20181;-76
2022/12/16 03:12:39;;;;;;;45.10;26.47;;;-0.20;99.90;;;;;;5033313;28;20199;-75
2022/12/16 03:15:07;;;;;;;45.93;28.07;;;-0.20;99.90;;;;;;5033266;28;20651;-76
2022/12/16 03:17:34;;;;;;;42.53;27.60;;;-0.20;99.90;;;;;;5032927;28;20206;-76
2022/12/16 03:20:13;;;;;;;50.47;29.53;;;-0.20;99.90;;;;;;5034368;28;20183;-76
2022/12/16 03:22:43;;;;;;;44.43;28.53;;;-0.20;99.90;;;;;;5033218;28;20277;-76
2022/12/16 03:25:10;;;;;;;55.97;29.40;;;-0.20;99.90;;;;;;5034539;28;20269;-76
2022/12/16 03:28:10;;;;;;;42.57;28.10;;;-0.20;99.90;;;;;;5032782;28;20682;-76
2022/12/16 03:30:41;;;;;;;46.77;28.07;;;-0.20;99.90;;;;;;5032872;28;20183;-76
2022/12/16 03:33:20;;;;;;;48.57;29.63;;;-0.20;99.90;;;;;;5032853;28;20671;-76
2022/12/16 03:35:55;;;;;;;47.83;29.50;;;-0.20;99.90;;;;;;5034135;28;20171;-76
2022/12/16 03:38:23;;;;;;;50.93;29.97;;;-0.20;99.90;;;;;;5032339;28;20210;-75
2022/12/16 03:40:50;;;;;;;46.97;29.23;;;-0.20;99.90;;;;;;5033930;28;20174;-76
2022/12/16 03:43:16;;;;;;;47.50;29.00;;;-0.20;99.90;;;;;;5033876;28;20747;-75
2022/12/16 03:45:44;;;;;;;47.40;28.50;;;-0.20;99.90;;;;;;5034026;28;20740;-76
2022/12/16 03:48:12;;;;;;;49.73;26.73;;;-0.20;99.90;;;;;;5033139;28;20201;-76
2022/12/16 03:50:39;;;;;;;48.80;29.67;;;-0.20;99.90;;;;;;5032632;28;20552;-76
2022/12/16 03:53:06;;;;;;;46.30;27.70;;;-0.20;99.90;;;;;;5033824;28;20648;-76
2022/12/16 03:55:32;;;;;;;45.60;27.00;;;-0.20;99.90;;;;;;5032874;28;20187;-76
2022/12/16 03:57:57;;;;;;;42.97;26.40;;;-0.20;99.90;;;;;;5033040;28;20280;-76
2022/12/16 04:00:25;;;;;;;43.20;28.07;;;-0.20;99.90;;;;;;5032187;28;20534;-76
2022/12/16 04:02:51;;;;;;;41.30;27.17;;;-0.20;99.90;;;;;;5033575;28;20556;-76
2022/12/16 04:05:17;;;;;;;41.50;26.90;;;-0.20;99.90;;;;;;5032363;28;20213;-76
2022/12/16 04:07:43;;;;;;;47.17;28.93;;;-0.20;99.90;;;;;;5031979;28;20202;-76
2022/12/16 04:10:09;;;;;;;46.10;29.20;;;-0.20;99.90;;;;;;5032344;28;20655;-76
2022/12/16 04:29:21;;;;;;;54.07;30.60;;;-0.50;99.90;;;;;;5033122;28;20305;-76
2022/12/16 04:31:47;;;;;;;48.93;31.03;;;-0.50;99.90;;;;;;5031820;28;20645;-76
2022/12/16 04:34:25;;;;;;;52.73;28.77;;;-0.50;99.90;;;;;;5032168;28;20204;-77
